Time;durP1;ratioP1;P1;durP2;ratioP2;P2;SDS_P1;SDS_P2;PMS_P1;PMS_P2;Temp;Humidity;BMP_temperature;BMP_pressure;BME280_temperature;BME280_humidity;BME280_pressure;Samples;Min_cycle;Max_cycle;Signal;HPM_P1;HPM_P2
2022/10/13 00:00:03;;;;;;;;;;;;;;;;;;352804;28;1234;-63
2022/10/13 00:00:14;;;;;;;;;;;;;;;;;;352791;28;983;-63
2022/10/13 00:00:24;;;;;;;;;;;;;;;;;;352822;28;979;-63
2022/10/13 00:00:37;;;;;;;;;;;;;;;;;;352851;28;1134;-63
2022/10/13 00:00:47;;;;;;;;;;;;;;;;;;352865;28;1015;-63
2022/10/13 00:00:58;;;;;;;;;;;;;;;;;;352812;28;1031;-63
2022/10/13 00:01:12;;;;;;;;;;;;;;;;;;352819;28;991;-63
2022/10/13 00:01:22;;;;;;;;;;;;;;;;;;352877;28;916;-63
2022/10/13 00:01:32;;;;;;;;;;;;;;;;;;352878;28;924;-63
2022/10/13 00:01:43;;;;;;;;;;;;;;;;;;352857;28;983;-63
2022/10/13 00:01:53;;;;;;;;;;;;;;;;;;352848;28;917;-63
2022/10/13 00:02:03;;;;;;;;;;;;;;;;;;352780;28;932;-63
2022/10/13 00:02:13;;;;;;;;;;;;;;;;;;352897;28;987;-63
2022/10/13 00:02:23;;;;;;;;;;;;;;;;;;352805;28;1055;-63
2022/10/13 00:02:34;;;;;;;;;;;;;;;;;;352856;28;991;-63
2022/10/13 00:02:44;;;;;;;;;;;;;;;;;;352842;28;979;-63
2022/10/13 00:02:54;;;;;;;;;;;;;;;;;;352835;28;1007;-63
2022/10/13 00:03:04;;;;;;;;;;;;;;;;;;352829;28;927;-63
2022/10/13 00:03:15;;;;;;;;;;;;;;;;;;352863;28;1014;-63
2022/10/13 00:03:25;;;;;;;;;;;;;;;;;;352633;28;1367;-63
2022/10/13 00:03:36;;;;;;;;;;;;;;;;;;350934;28;1692;-63
2022/10/13 00:03:47;;;;;;;;;;;;;;;;;;351412;28;991;-63
2022/10/13 00:03:57;;;;;;;;;;;;;;;;;;351504;28;924;-63
2022/10/13 00:04:07;;;;;;;;;;;;;;;;;;351397;28;994;-63
2022/10/13 00:04:17;;;;;;;;;;;;;;;;;;351455;28;1007;-63
2022/10/13 00:04:27;;;;;;;;;;;;;;;;;;351374;28;959;-63
2022/10/13 00:04:38;;;;;;;;;;;;;;;;;;351452;28;864;-63
2022/10/13 00:04:48;;;;;;;;;;;;;;;;;;351386;28;956;-63
2022/10/13 00:04:58;;;;;;;;;;;;;;;;;;351288;28;1031;-63
2022/10/13 00:05:08;;;;;;;;;;;;;;;;;;351366;28;924;-63
2022/10/13 00:05:18;;;;;;;;;;;;;;;;;;351486;28;974;-63
2022/10/13 00:05:29;;;;;;;;;;;;;;;;;;351439;28;821;-63
2022/10/13 00:05:43;;;;;;;;;;;;;;;;;;351446;28;952;-63
2022/10/13 00:05:53;;;;;;;;;;;;;;;;;;351421;28;990;-63
2022/10/13 00:06:05;;;;;;;;;;;;;;;;;;351420;28;975;-63
2022/10/13 00:06:17;;;;;;;;;;;;;;;;;;351417;28;935;-63
2022/10/13 00:06:27;;;;;;;;;;;;;;;;;;351459;28;801;-63
2022/10/13 00:06:38;;;;;;;;;;;;;;;;;;351385;28;960;-62
2022/10/13 00:06:48;;;;;;;;;;;;;;;;;;351421;28;1051;-63
2022/10/13 00:06:58;;;;;;;;;;;;;;;;;;351440;28;943;-63
2022/10/13 00:07:08;;;;;;;;;;;;;;;;;;351403;28;940;-63
2022/10/13 00:07:18;;;;;;;;;;;;;;;;;;351447;28;912;-63
2022/10/13 00:07:29;;;;;;;;;;;;;;;;;;351098;28;1551;-63
2022/10/13 00:07:39;;;;;;;;;;;;;;;;;;351292;28;1530;-63
2022/10/13 00:07:49;;;;;;;;;;;;;;;;;;351489;28;834;-63
2022/10/13 00:07:59;;;;;;;;;;;;;;;;;;351451;28;971;-63
2022/10/13 00:08:10;;;;;;;;;;;;;;;;;;351435;28;998;-63
2022/10/13 00:08:21;;;;;;;;;;;;;;;;;;351365;28;1277;-63
2022/10/13 00:08:31;;;;;;;;;;;;;;;;;;351418;28;992;-63
2022/10/13 00:08:41;;;;;;;;;;;;;;;;;;351417;28;948;-63
2022/10/13 00:08:52;;;;;;;;;;;;;;;;;;351491;28;995;-63
2022/10/13 00:09:02;;;;;;;;;;;;;;;;;;351471;28;956;-63
2022/10/13 00:09:12;;;;;;;;;;;;;;;;;;351393;28;857;-63
2022/10/13 00:09:23;;;;;;;;;;;;;;;;;;351490;28;909;-63
2022/10/13 00:09:33;;;;;;;;;;;;;;;;;;351487;28;860;-63
2022/10/13 00:09:43;;;;;;;;;;;;;;;;;;351475;28;920;-63
2022/10/13 00:09:53;;;;;;;;;;;;;;;;;;351420;28;1253;-63
2022/10/13 00:10:04;;;;;;;;;;;;;;;;;;351492;28;797;-63
2022/10/13 00:10:14;;;;;;;;;;;;;;;;;;351409;28;1059;-63
2022/10/13 00:10:25;;;;;;;;;;;;;;;;;;351495;28;994;-63
2022/10/13 00:10:39;;;;;;;;;;;;;;;;;;351433;28;1010;-63
2022/10/13 00:10:49;;;;;;;;;;;;;;;;;;351406;28;1048;-63
2022/10/13 00:10:59;;;;;;;;;;;;;;;;;;351487;28;904;-63
2022/10/13 00:11:17;;;;;;;;;;;;;;;;;;351435;28;840;-63
2022/10/13 00:11:28;;;;;;;;;;;;;;;;;;351464;28;1042;-63
2022/10/13 00:11:38;;;;;;;;;;;;;;;;;;351410;28;1311;-63
2022/10/13 00:11:49;;;;;;;;;;;;;;;;;;351428;28;885;-63
2022/10/13 00:11:59;;;;;;;;;;;;;;;;;;351453;28;976;-63
2022/10/13 00:12:09;;;;;;;;;;;;;;;;;;351429;28;1025;-63
2022/10/13 00:12:19;;;;;;;;;;;;;;;;;;351401;28;979;-63
2022/10/13 00:12:29;;;;;;;;;;;;;;;;;;351419;28;924;-63
2022/10/13 00:12:39;;;;;;;;;;;;;;;;;;351478;28;782;-63
2022/10/13 00:12:50;;;;;;;;;;;;;;;;;;351399;28;916;-63
2022/10/13 00:13:00;;;;;;;;;;;;;;;;;;351430;28;955;-63
2022/10/13 00:13:10;;;;;;;;;;;;;;;;;;351424;28;991;-63
2022/10/13 00:13:21;;;;;;;;;;;;;;;;;;351403;28;916;-63
2022/10/13 00:13:31;;;;;;;;;;;;;;;;;;351459;28;1102;-63
2022/10/13 00:13:42;;;;;;;;;;;;;;;;;;351463;28;766;-63
2022/10/13 00:13:56;;;;;;;;;;;;;;;;;;351439;28;1144;-63
2022/10/13 00:14:06;;;;;;;;;;;;;;;;;;351369;28;1007;-63
2022/10/13 00:14:17;;;;;;;;;;;;;;;;;;351424;28;975;-63
2022/10/13 00:14:27;;;;;;;;;;;;;;;;;;351422;28;1000;-63
2022/10/13 00:14:37;;;;;;;;;;;;;;;;;;351393;28;1035;-63
2022/10/13 00:14:47;;;;;;;;;;;;;;;;;;351424;28;972;-63
2022/10/13 00:14:58;;;;;;;;;;;;;;;;;;351374;28;1059;-63
2022/10/13 00:15:08;;;;;;;;;;;;;;;;;;351389;28;1374;-63
2022/10/13 00:15:19;;;;;;;;;;;;;;;;;;351434;28;976;-63
2022/10/13 00:15:29;;;;;;;;;;;;;;;;;;351385;28;1898;-63
2022/10/13 00:15:40;;;;;;;;;;;;;;;;;;351390;28;948;-63
2022/10/13 00:15:50;;;;;;;;;;;;;;;;;;351369;28;936;-63
2022/10/13 00:16:01;;;;;;;;;;;;;;;;;;351421;28;1020;-63
2022/10/13 00:16:13;;;;;;;;;;;;;;;;;;351436;28;968;-63
2022/10/13 00:16:23;;;;;;;;;;;;;;;;;;351387;28;1035;-63
2022/10/13 00:16:34;;;;;;;;;;;;;;;;;;351434;28;1015;-63
2022/10/13 00:16:44;;;;;;;;;;;;;;;;;;351448;28;991;-63
2022/10/13 00:16:54;;;;;;;;;;;;;;;;;;351433;28;960;-63
2022/10/13 00:17:04;;;;;;;;;;;;;;;;;;351401;28;808;-63
2022/10/13 00:17:14;;;;;;;;;;;;;;;;;;351444;28;937;-63
2022/10/13 00:17:25;;;;;;;;;;;;;;;;;;351464;28;786;-63
2022/10/13 00:17:35;;;;;;;;;;;;;;;;;;350326;28;1544;-63
2022/10/13 00:17:45;;;;;;;;;;;;;;;;;;351425;28;1126;-63
2022/10/13 00:17:55;;;;;;;;;;;;;;;;;;351447;28;932;-63
2022/10/13 00:18:06;;;;;;;;;;;;;;;;;;351447;28;936;-63
2022/10/13 00:18:16;;;;;;;;;;;;;;;;;;351441;28;908;-63
2022/10/13 00:18:26;;;;;;;;;;;;;;;;;;351417;28;996;-63
2022/10/13 00:18:37;;;;;;;;;;;;;;;;;;351427;28;956;-63
2022/10/13 00:18:47;;;;;;;;;;;;;;;;;;351431;28;1027;-63
2022/10/13 00:18:58;;;;;;;;;;;;;;;;;;351468;28;960;-62
2022/10/13 00:19:08;;;;;;;;;;;;;;;;;;351398;28;1019;-62
2022/10/13 00:19:18;;;;;;;;;;;;;;;;;;351354;28;924;-62
2022/10/13 00:19:30;;;;;;;;;;;;;;;;;;351434;28;853;-63
2022/10/13 00:19:40;;;;;;;;;;;;;;;;;;351467;28;908;-63
2022/10/13 00:19:50;;;;;;;;;;;;;;;;;;351417;28;975;-62
2022/10/13 00:20:02;;;;;;;;;;;;;;;;;;351432;28;948;-62
2022/10/13 00:20:12;;;;;;;;;;;;;;;;;;351385;28;788;-62
2022/10/13 00:20:22;;;;;;;;;;;;;;;;;;351383;28;924;-63
2022/10/13 00:20:33;;;;;;;;;;;;;;;;;;351447;28;995;-62
2022/10/13 00:20:45;;;;;;;;;;;;;;;;;;351498;28;853;-62
2022/10/13 00:20:55;;;;;;;;;;;;;;;;;;351364;28;805;-62
2022/10/13 00:21:06;;;;;;;;;;;;;;;;;;351419;28;944;-62
2022/10/13 00:21:18;;;;;;;;;;;;;;;;;;351419;28;814;-62
2022/10/13 00:21:28;;;;;;;;;;;;;;;;;;351275;28;1412;-62
2022/10/13 00:21:38;;;;;;;;;;;;;;;;;;351426;28;928;-62
2022/10/13 00:21:48;;;;;;;;;;;;;;;;;;351423;28;1045;-62
2022/10/13 00:21:59;;;;;;;;;;;;;;;;;;351485;28;881;-63
2022/10/13 00:22:09;;;;;;;;;;;;;;;;;;351433;28;928;-62
2022/10/13 00:22:19;;;;;;;;;;;;;;;;;;351467;28;829;-62
2022/10/13 00:22:29;;;;;;;;;;;;;;;;;;351430;28;1009;-62
2022/10/13 00:22:39;;;;;;;;;;;;;;;;;;351395;28;1322;-62
2022/10/13 00:22:50;;;;;;;;;;;;;;;;;;351485;28;833;-62
2022/10/13 00:23:00;;;;;;;;;;;;;;;;;;350737;28;2039;-62
2022/10/13 00:23:10;;;;;;;;;;;;;;;;;;350359;28;1581;-62
2022/10/13 00:23:21;;;;;;;;;;;;;;;;;;352806;28;979;-63
2022/10/13 00:23:32;;;;;;;;;;;;;;;;;;352783;28;916;-62
2022/10/13 00:23:42;;;;;;;;;;;;;;;;;;352815;28;912;-62
2022/10/13 00:23:53;;;;;;;;;;;;;;;;;;352821;28;801;-62
2022/10/13 00:24:03;;;;;;;;;;;;;;;;;;352834;28;895;-62
2022/10/13 00:24:14;;;;;;;;;;;;;;;;;;352774;28;1162;-62
2022/10/13 00:24:24;;;;;;;;;;;;;;;;;;352881;28;801;-62
2022/10/13 00:24:34;;;;;;;;;;;;;;;;;;352755;28;916;-63
2022/10/13 00:24:49;;;;;;;;;;;;;;;;;;352813;28;1020;-62
2022/10/13 00:24:59;;;;;;;;;;;;;;;;;;352915;28;948;-62
2022/10/13 00:25:09;;;;;;;;;;;;;;;;;;352796;28;932;-62
2022/10/13 00:25:20;;;;;;;;;;;;;;;;;;352832;28;1000;-62
2022/10/13 00:25:30;;;;;;;;;;;;;;;;;;352768;28;948;-62
2022/10/13 00:25:42;;;;;;;;;;;;;;;;;;352557;28;1502;-62
2022/10/13 00:25:52;;;;;;;;;;;;;;;;;;351101;28;1460;-62
2022/10/13 00:26:03;;;;;;;;;;;;;;;;;;351477;28;872;-63
2022/10/13 00:26:14;;;;;;;;;;;;;;;;;;351182;28;1463;-62
2022/10/13 00:26:24;;;;;;;;;;;;;;;;;;351412;28;1033;-63
2022/10/13 00:26:35;;;;;;;;;;;;;;;;;;351428;28;924;-62
2022/10/13 00:26:45;;;;;;;;;;;;;;;;;;351407;28;892;-63
2022/10/13 00:26:55;;;;;;;;;;;;;;;;;;351426;28;987;-62
2022/10/13 00:27:05;;;;;;;;;;;;;;;;;;351430;28;1016;-62
2022/10/13 00:27:15;;;;;;;;;;;;;;;;;;351418;28;802;-62
2022/10/13 00:27:26;;;;;;;;;;;;;;;;;;351420;28;849;-62
2022/10/13 00:27:36;;;;;;;;;;;;;;;;;;351373;28;948;-62
2022/10/13 00:27:46;;;;;;;;;;;;;;;;;;351294;28;1404;-63
2022/10/13 00:27:56;;;;;;;;;;;;;;;;;;351325;28;1439;-63
2022/10/13 00:28:06;;;;;;;;;;;;;;;;;;351491;28;825;-62
2022/10/13 00:28:18;;;;;;;;;;;;;;;;;;351349;28;1004;-63
2022/10/13 00:28:28;;;;;;;;;;;;;;;;;;351453;28;939;-62
2022/10/13 00:28:39;;;;;;;;;;;;;;;;;;351397;28;1082;-62
2022/10/13 00:28:49;;;;;;;;;;;;;;;;;;351368;28;1785;-63
2022/10/13 00:28:59;;;;;;;;;;;;;;;;;;350114;28;1359;-62
2022/10/13 00:29:09;;;;;;;;;;;;;;;;;;350034;28;917;-62
2022/10/13 00:29:19;;;;;;;;;;;;;;;;;;349993;28;953;-62
2022/10/13 00:29:30;;;;;;;;;;;;;;;;;;350051;28;873;-63
2022/10/13 00:29:40;;;;;;;;;;;;;;;;;;349965;28;980;-62
2022/10/13 00:29:50;;;;;;;;;;;;;;;;;;349985;28;864;-63
2022/10/13 00:30:00;;;;;;;;;;;;;;;;;;350070;28;774;-62
2022/10/13 00:30:11;;;;;;;;;;;;;;;;;;350010;28;988;-62
2022/10/13 00:30:21;;;;;;;;;;;;;;;;;;349985;28;968;-62
2022/10/13 00:30:35;;;;;;;;;;;;;;;;;;350032;28;904;-62
2022/10/13 00:30:45;;;;;;;;;;;;;;;;;;349977;28;940;-62
2022/10/13 00:30:56;;;;;;;;;;;;;;;;;;350004;28;956;-63
2022/10/13 00:31:16;;;;;;;;;;;;;;;;;;350025;28;945;-62
2022/10/13 00:31:28;;;;;;;;;;;;;;;;;;350002;28;813;-62
2022/10/13 00:31:39;;;;;;;;;;;;;;;;;;349945;28;992;-62
2022/10/13 00:31:49;;;;;;;;;;;;;;;;;;350027;28;916;-62
2022/10/13 00:31:59;;;;;;;;;;;;;;;;;;350039;28;880;-62
2022/10/13 00:32:09;;;;;;;;;;;;;;;;;;349992;28;972;-62
2022/10/13 00:32:20;;;;;;;;;;;;;;;;;;349960;28;1051;-63
2022/10/13 00:32:30;;;;;;;;;;;;;;;;;;350029;28;987;-62
2022/10/13 00:32:40;;;;;;;;;;;;;;;;;;349827;28;1155;-63
2022/10/13 00:32:50;;;;;;;;;;;;;;;;;;350580;28;1276;-63
2022/10/13 00:33:01;;;;;;;;;;;;;;;;;;352826;28;881;-63
2022/10/13 00:33:11;;;;;;;;;;;;;;;;;;352854;28;833;-62
2022/10/13 00:33:22;;;;;;;;;;;;;;;;;;352791;28;1034;-62
2022/10/13 00:33:32;;;;;;;;;;;;;;;;;;352858;28;845;-62
2022/10/13 00:33:42;;;;;;;;;;;;;;;;;;352735;28;924;-63
2022/10/13 00:33:53;;;;;;;;;;;;;;;;;;352722;28;1119;-62
2022/10/13 00:34:03;;;;;;;;;;;;;;;;;;352768;28;1001;-62
2022/10/13 00:34:13;;;;;;;;;;;;;;;;;;352836;28;928;-62
2022/10/13 00:34:23;;;;;;;;;;;;;;;;;;352775;28;778;-63
2022/10/13 00:34:35;;;;;;;;;;;;;;;;;;352813;28;908;-62
2022/10/13 00:34:45;;;;;;;;;;;;;;;;;;352804;28;1094;-62
2022/10/13 00:34:56;;;;;;;;;;;;;;;;;;352817;28;805;-63
2022/10/13 00:35:06;;;;;;;;;;;;;;;;;;352823;28;1006;-62
2022/10/13 00:35:17;;;;;;;;;;;;;;;;;;352769;28;1134;-62
2022/10/13 00:35:27;;;;;;;;;;;;;;;;;;352703;28;1909;-63
2022/10/13 00:35:55;;;;;;;;;;;;;;;;;;352792;28;944;-62
2022/10/13 00:36:05;;;;;;;;;;;;;;;;;;352720;28;1063;-62
2022/10/13 00:36:16;;;;;;;;;;;;;;;;;;352781;28;913;-62
2022/10/13 00:36:26;;;;;;;;;;;;;;;;;;352771;28;995;-62
2022/10/13 00:36:36;;;;;;;;;;;;;;;;;;352776;28;924;-63
2022/10/13 00:36:47;;;;;;;;;;;;;;;;;;352810;28;898;-63
2022/10/13 00:36:57;;;;;;;;;;;;;;;;;;352827;28;971;-62
2022/10/13 00:37:07;;;;;;;;;;;;;;;;;;352775;28;1003;-62
2022/10/13 00:37:17;;;;;;;;;;;;;;;;;;352785;28;845;-63
2022/10/13 00:37:27;;;;;;;;;;;;;;;;;;352790;28;924;-62
2022/10/13 00:37:38;;;;;;;;;;;;;;;;;;352757;28;1033;-62
2022/10/13 00:37:48;;;;;;;;;;;;;;;;;;352695;28;912;-62
2022/10/13 00:37:58;;;;;;;;;;;;;;;;;;352821;28;842;-62
2022/10/13 00:38:08;;;;;;;;;;;;;;;;;;352820;28;1047;-62
2022/10/13 00:38:20;;;;;;;;;;;;;;;;;;352718;28;1054;-62
2022/10/13 00:38:30;;;;;;;;;;;;;;;;;;352800;28;920;-62
2022/10/13 00:38:41;;;;;;;;;;;;;;;;;;352805;28;868;-62
2022/10/13 00:38:51;;;;;;;;;;;;;;;;;;352781;28;1026;-62
2022/10/13 00:39:02;;;;;;;;;;;;;;;;;;352795;28;980;-62
2022/10/13 00:39:12;;;;;;;;;;;;;;;;;;352838;28;794;-62
2022/10/13 00:39:22;;;;;;;;;;;;;;;;;;352877;28;996;-62
2022/10/13 00:39:33;;;;;;;;;;;;;;;;;;352829;28;793;-62
2022/10/13 00:39:43;;;;;;;;;;;;;;;;;;352789;28;973;-62
2022/10/13 00:39:53;;;;;;;;;;;;;;;;;;351198;28;1677;-62
2022/10/13 00:40:04;;;;;;;;;;;;;;;;;;349994;28;1031;-62
2022/10/13 00:40:14;;;;;;;;;;;;;;;;;;349982;28;1008;-62
2022/10/13 00:40:24;;;;;;;;;;;;;;;;;;349986;28;1007;-62
2022/10/13 00:40:41;;;;;;;;;;;;;;;;;;350051;28;865;-62
2022/10/13 00:40:53;;;;;;;;;;;;;;;;;;349973;28;991;-63
2022/10/13 00:41:04;;;;;;;;;;;;;;;;;;349971;28;991;-62
2022/10/13 00:41:14;;;;;;;;;;;;;;;;;;350055;28;921;-62
2022/10/13 00:41:24;;;;;;;;;;;;;;;;;;350038;28;845;-62
2022/10/13 00:41:34;;;;;;;;;;;;;;;;;;350017;28;925;-62
2022/10/13 00:41:45;;;;;;;;;;;;;;;;;;349979;28;810;-63
2022/10/13 00:41:59;;;;;;;;;;;;;;;;;;349602;28;1355;-62
2022/10/13 00:42:11;;;;;;;;;;;;;;;;;;350005;28;912;-63
2022/10/13 00:42:25;;;;;;;;;;;;;;;;;;349994;28;1003;-62
2022/10/13 00:42:35;;;;;;;;;;;;;;;;;;350050;28;972;-62
2022/10/13 00:42:45;;;;;;;;;;;;;;;;;;350030;28;992;-62
2022/10/13 00:42:55;;;;;;;;;;;;;;;;;;349995;28;952;-62
2022/10/13 00:43:13;;;;;;;;;;;;;;;;;;350493;28;1347;-62
2022/10/13 00:43:23;;;;;;;;;;;;;;;;;;351408;28;999;-62
2022/10/13 00:44:08;;;;;;;;;;;;;;;;;;351419;28;924;-63
2022/10/13 00:44:37;;;;;;;;;;;;;;;;;;347105;28;933;-62
2022/10/13 00:44:58;;;;;;;;;;;;;;;;;;347011;28;1007;-63
2022/10/13 00:45:08;;;;;;;;;;;;;;;;;;347096;28;967;-62
2022/10/13 00:45:19;;;;;;;;;;;;;;;;;;347104;28;917;-62
2022/10/13 00:45:29;;;;;;;;;;;;;;;;;;347065;28;937;-62
2022/10/13 00:45:39;;;;;;;;;;;;;;;;;;347103;28;925;-62
2022/10/13 00:45:50;;;;;;;;;;;;;;;;;;347089;28;850;-63
2022/10/13 00:46:00;;;;;;;;;;;;;;;;;;347086;28;806;-63
2022/10/13 00:46:10;;;;;;;;;;;;;;;;;;346961;28;853;-63
2022/10/13 00:46:21;;;;;;;;;;;;;;;;;;347047;28;988;-62
2022/10/13 00:46:32;;;;;;;;;;;;;;;;;;347100;28;918;-62
2022/10/13 00:46:43;;;;;;;;;;;;;;;;;;347070;28;798;-62
2022/10/13 00:46:53;;;;;;;;;;;;;;;;;;347006;28;904;-62
2022/10/13 00:47:03;;;;;;;;;;;;;;;;;;347062;28;953;-62
2022/10/13 00:47:13;;;;;;;;;;;;;;;;;;350736;28;1007;-62
2022/10/13 00:47:25;;;;;;;;;;;;;;;;;;351359;28;892;-62
2022/10/13 00:47:37;;;;;;;;;;;;;;;;;;351375;28;912;-63
2022/10/13 00:47:50;;;;;;;;;;;;;;;;;;351402;28;1027;-62
2022/10/13 00:48:00;;;;;;;;;;;;;;;;;;351366;28;903;-62
2022/10/13 00:48:11;;;;;;;;;;;;;;;;;;351341;28;1003;-62
2022/10/13 00:48:26;;;;;;;;;;;;;;;;;;351273;28;936;-62
2022/10/13 00:48:36;;;;;;;;;;;;;;;;;;351340;28;943;-62
2022/10/13 00:48:47;;;;;;;;;;;;;;;;;;351433;28;845;-62
2022/10/13 00:49:01;;;;;;;;;;;;;;;;;;351314;28;929;-63
2022/10/13 00:49:13;;;;;;;;;;;;;;;;;;351404;28;856;-62
2022/10/13 00:49:23;;;;;;;;;;;;;;;;;;351323;28;885;-62
2022/10/13 00:49:33;;;;;;;;;;;;;;;;;;351406;28;1182;-62
2022/10/13 00:49:43;;;;;;;;;;;;;;;;;;351357;28;840;-62
2022/10/13 00:49:54;;;;;;;;;;;;;;;;;;351310;28;948;-62
2022/10/13 00:50:06;;;;;;;;;;;;;;;;;;350581;28;1438;-62
2022/10/13 00:50:18;;;;;;;;;;;;;;;;;;351338;28;1058;-62
2022/10/13 00:50:32;;;;;;;;;;;;;;;;;;351280;28;1027;-62
2022/10/13 00:50:43;;;;;;;;;;;;;;;;;;351372;28;949;-62
2022/10/13 00:50:55;;;;;;;;;;;;;;;;;;351330;28;1048;-63
2022/10/13 00:51:05;;;;;;;;;;;;;;;;;;351387;28;833;-62
2022/10/13 00:51:19;;;;;;;;;;;;;;;;;;351369;28;1152;-62
2022/10/13 00:51:32;;;;;;;;;;;;;;;;;;351357;28;971;-62
2022/10/13 00:51:46;;;;;;;;;;;;;;;;;;351356;28;976;-62
2022/10/13 00:51:56;;;;;;;;;;;;;;;;;;351333;28;930;-62
2022/10/13 00:52:06;;;;;;;;;;;;;;;;;;351329;28;999;-62
2022/10/13 00:52:18;;;;;;;;;;;;;;;;;;351347;28;976;-62
2022/10/13 00:52:30;;;;;;;;;;;;;;;;;;351267;28;968;-62
2022/10/13 00:52:40;;;;;;;;;;;;;;;;;;351383;28;887;-62
2022/10/13 00:52:51;;;;;;;;;;;;;;;;;;351418;28;841;-63
2022/10/13 00:53:02;;;;;;;;;;;;;;;;;;350955;28;2129;-63
2022/10/13 00:53:14;;;;;;;;;;;;;;;;;;350147;28;1589;-63
2022/10/13 00:53:27;;;;;;;;;;;;;;;;;;352802;28;841;-62
2022/10/13 00:53:38;;;;;;;;;;;;;;;;;;352744;28;967;-62
2022/10/13 00:53:49;;;;;;;;;;;;;;;;;;352785;28;845;-62
2022/10/13 00:54:00;;;;;;;;;;;;;;;;;;352749;28;920;-63
2022/10/13 00:54:12;;;;;;;;;;;;;;;;;;352778;28;892;-62
2022/10/13 00:54:23;;;;;;;;;;;;;;;;;;352775;28;901;-63
2022/10/13 00:54:33;;;;;;;;;;;;;;;;;;352761;28;829;-63
2022/10/13 00:54:43;;;;;;;;;;;;;;;;;;352799;28;887;-63
2022/10/13 00:54:54;;;;;;;;;;;;;;;;;;352797;28;868;-62
2022/10/13 00:55:05;;;;;;;;;;;;;;;;;;350374;28;2214;-62
2022/10/13 00:55:19;;;;;;;;;;;;;;;;;;352716;28;1076;-62
2022/10/13 00:55:30;;;;;;;;;;;;;;;;;;352694;28;1905;-62
2022/10/13 00:55:41;;;;;;;;;;;;;;;;;;352830;28;809;-63
2022/10/13 00:55:52;;;;;;;;;;;;;;;;;;350632;28;1514;-62
2022/10/13 00:56:04;;;;;;;;;;;;;;;;;;351397;28;1297;-62
2022/10/13 00:56:16;;;;;;;;;;;;;;;;;;351369;28;916;-62
2022/10/13 00:56:28;;;;;;;;;;;;;;;;;;351394;28;924;-62
2022/10/13 00:56:38;;;;;;;;;;;;;;;;;;351330;28;936;-62
2022/10/13 00:56:50;;;;;;;;;;;;;;;;;;351384;28;1086;-62
2022/10/13 00:57:01;;;;;;;;;;;;;;;;;;351416;28;848;-62
2022/10/13 00:57:12;;;;;;;;;;;;;;;;;;351361;28;936;-62
2022/10/13 00:57:22;;;;;;;;;;;;;;;;;;351348;28;1331;-62
2022/10/13 00:57:33;;;;;;;;;;;;;;;;;;351392;28;952;-63
2022/10/13 00:57:45;;;;;;;;;;;;;;;;;;351366;28;912;-62
2022/10/13 00:57:58;;;;;;;;;;;;;;;;;;351415;27;988;-62
2022/10/13 00:58:10;;;;;;;;;;;;;;;;;;351324;28;984;-62
2022/10/13 00:58:22;;;;;;;;;;;;;;;;;;351424;28;849;-62
2022/10/13 00:58:34;;;;;;;;;;;;;;;;;;351342;28;841;-63
2022/10/13 00:58:45;;;;;;;;;;;;;;;;;;351311;28;921;-62
2022/10/13 00:58:56;;;;;;;;;;;;;;;;;;351434;28;905;-62
2022/10/13 00:59:12;;;;;;;;;;;;;;;;;;351400;28;1011;-62
2022/10/13 00:59:26;;;;;;;;;;;;;;;;;;351354;28;862;-62
2022/10/13 00:59:37;;;;;;;;;;;;;;;;;;351411;28;983;-63
2022/10/13 00:59:48;;;;;;;;;;;;;;;;;;351380;28;992;-62
2022/10/13 00:59:59;;;;;;;;;;;;;;;;;;351315;28;1031;-62
2022/10/13 01:00:10;;;;;;;;;;;;;;;;;;351325;28;1000;-63
2022/10/13 01:00:21;;;;;;;;;;;;;;;;;;351342;28;920;-63
2022/10/13 01:00:32;;;;;;;;;;;;;;;;;;351416;28;1019;-62
2022/10/13 01:00:47;;;;;;;;;;;;;;;;;;351347;28;995;-63
2022/10/13 01:00:58;;;;;;;;;;;;;;;;;;351366;28;987;-62
2022/10/13 01:01:08;;;;;;;;;;;;;;;;;;351417;28;968;-62
2022/10/13 01:01:18;;;;;;;;;;;;;;;;;;351343;28;936;-62
2022/10/13 01:01:29;;;;;;;;;;;;;;;;;;351396;28;920;-62
2022/10/13 01:01:39;;;;;;;;;;;;;;;;;;351332;28;916;-62
2022/10/13 01:01:50;;;;;;;;;;;;;;;;;;351412;28;873;-62
2022/10/13 01:02:01;;;;;;;;;;;;;;;;;;351451;28;825;-62
2022/10/13 01:02:11;;;;;;;;;;;;;;;;;;351314;28;952;-62
2022/10/13 01:02:22;;;;;;;;;;;;;;;;;;351397;28;975;-62
2022/10/13 01:02:34;;;;;;;;;;;;;;;;;;351356;28;948;-62
2022/10/13 01:02:44;;;;;;;;;;;;;;;;;;350460;28;1790;-62
2022/10/13 01:02:54;;;;;;;;;;;;;;;;;;351351;28;908;-62
2022/10/13 01:03:04;;;;;;;;;;;;;;;;;;351391;28;754;-62
2022/10/13 01:03:16;;;;;;;;;;;;;;;;;;351340;28;917;-63
2022/10/13 01:03:26;;;;;;;;;;;;;;;;;;351374;28;1008;-62
2022/10/13 01:03:37;;;;;;;;;;;;;;;;;;351360;28;936;-62
2022/10/13 01:03:47;;;;;;;;;;;;;;;;;;351404;28;948;-62
2022/10/13 01:03:57;;;;;;;;;;;;;;;;;;351423;28;829;-62
2022/10/13 01:04:08;;;;;;;;;;;;;;;;;;351390;28;797;-62
2022/10/13 01:04:21;;;;;;;;;;;;;;;;;;351349;28;940;-62
2022/10/13 01:04:39;;;;;;;;;;;;;;;;;;351377;28;960;-62
2022/10/13 01:04:50;;;;;;;;;;;;;;;;;;351344;28;952;-62
2022/10/13 01:05:02;;;;;;;;;;;;;;;;;;351262;28;991;-62
2022/10/13 01:05:13;;;;;;;;;;;;;;;;;;351405;28;852;-62
2022/10/13 01:05:24;;;;;;;;;;;;;;;;;;351374;28;964;-62
2022/10/13 01:05:34;;;;;;;;;;;;;;;;;;351372;28;1019;-63
2022/10/13 01:05:45;;;;;;;;;;;;;;;;;;351326;28;968;-62
2022/10/13 01:05:56;;;;;;;;;;;;;;;;;;351340;28;1016;-63
2022/10/13 01:06:07;;;;;;;;;;;;;;;;;;351363;28;967;-63
2022/10/13 01:06:17;;;;;;;;;;;;;;;;;;351371;28;800;-62
2022/10/13 01:06:28;;;;;;;;;;;;;;;;;;351313;28;920;-63
2022/10/13 01:06:39;;;;;;;;;;;;;;;;;;351426;28;904;-62
2022/10/13 01:06:50;;;;;;;;;;;;;;;;;;351349;28;932;-62
2022/10/13 01:07:01;;;;;;;;;;;;;;;;;;351336;28;1019;-62
2022/10/13 01:07:13;;;;;;;;;;;;;;;;;;351281;28;1135;-62
2022/10/13 01:07:24;;;;;;;;;;;;;;;;;;351345;28;903;-62
2022/10/13 01:07:34;;;;;;;;;;;;;;;;;;351420;28;773;-62
2022/10/13 01:07:47;;;;;;;;;;;;;;;;;;351397;28;912;-62
2022/10/13 01:07:58;;;;;;;;;;;;;;;;;;351272;28;979;-62
2022/10/13 01:08:09;;;;;;;;;;;;;;;;;;351390;28;1035;-62
2022/10/13 01:08:20;;;;;;;;;;;;;;;;;;351367;28;810;-62
2022/10/13 01:08:31;;;;;;;;;;;;;;;;;;351403;28;798;-63
2022/10/13 01:08:41;;;;;;;;;;;;;;;;;;351383;28;983;-63
2022/10/13 01:08:51;;;;;;;;;;;;;;;;;;351386;28;924;-62
2022/10/13 01:09:01;;;;;;;;;;;;;;;;;;351399;28;940;-62
2022/10/13 01:09:12;;;;;;;;;;;;;;;;;;351329;28;1027;-62
2022/10/13 01:09:22;;;;;;;;;;;;;;;;;;351334;28;951;-62
2022/10/13 01:09:41;;;;;;;;;;;;;;;;;;351338;28;920;-63
2022/10/13 01:09:51;;;;;;;;;;;;;;;;;;351393;28;774;-62
2022/10/13 01:10:03;;;;;;;;;;;;;;;;;;351376;28;921;-62
2022/10/13 01:10:25;;;;;;;;;;;;;;;;;;351398;28;774;-62
2022/10/13 01:10:41;;;;;;;;;;;;;;;;;;351392;28;840;-62
2022/10/13 01:10:51;;;;;;;;;;;;;;;;;;351353;28;757;-62
2022/10/13 01:11:26;;;;;;;;;;;;;;;;;;351346;28;980;-63
2022/10/13 01:11:39;;;;;;;;;;;;;;;;;;351371;28;920;-62
2022/10/13 01:11:57;;;;;;;;;;;;;;;;;;351366;28;916;-63
2022/10/13 01:12:26;;;;;;;;;;;;;;;;;;351314;28;1058;-63
2022/10/13 01:12:47;;;;;;;;;;;;;;;;;;351284;28;912;-62
2022/10/13 01:13:09;;;;;;;;;;;;;;;;;;351360;28;1015;-62
2022/10/13 01:13:28;;;;;;;;;;;;;;;;;;351253;28;963;-63
2022/10/13 01:14:02;;;;;;;;;;;;;;;;;;351348;28;983;-62
2022/10/13 01:14:18;;;;;;;;;;;;;;;;;;351392;28;995;-62
2022/10/13 01:14:31;;;;;;;;;;;;;;;;;;351349;28;932;-62
2022/10/13 01:14:42;;;;;;;;;;;;;;;;;;351382;28;928;-63
2022/10/13 01:14:52;;;;;;;;;;;;;;;;;;351300;28;948;-63
2022/10/13 01:15:12;;;;;;;;;;;;;;;;;;351326;28;1027;-62
2022/10/13 01:15:35;;;;;;;;;;;;;;;;;;351315;28;825;-62
2022/10/13 01:15:58;;;;;;;;;;;;;;;;;;351387;28;909;-62
2022/10/13 01:16:11;;;;;;;;;;;;;;;;;;351356;28;924;-63
2022/10/13 01:16:42;;;;;;;;;;;;;;;;;;351282;28;1070;-62
2022/10/13 01:17:04;;;;;;;;;;;;;;;;;;350795;28;1169;-63
2022/10/13 01:17:24;;;;;;;;;;;;;;;;;;351362;28;978;-63
2022/10/13 01:17:43;;;;;;;;;;;;;;;;;;350174;28;1713;-62
2022/10/13 01:18:01;;;;;;;;;;;;;;;;;;351340;28;873;-63
2022/10/13 01:18:25;;;;;;;;;;;;;;;;;;351358;28;948;-62
2022/10/13 01:18:54;;;;;;;;;;;;;;;;;;351280;28;1161;-63
2022/10/13 01:19:16;;;;;;;;;;;;;;;;;;351382;28;932;-62
2022/10/13 01:19:41;;;;;;;;;;;;;;;;;;351359;28;968;-62
2022/10/13 01:20:08;;;;;;;;;;;;;;;;;;351348;28;1003;-62
2022/10/13 01:20:38;;;;;;;;;;;;;;;;;;351349;28;960;-63
2022/10/13 01:20:57;;;;;;;;;;;;;;;;;;351319;28;924;-62
2022/10/13 01:21:13;;;;;;;;;;;;;;;;;;351424;28;852;-62
2022/10/13 01:21:27;;;;;;;;;;;;;;;;;;351338;28;928;-62
2022/10/13 01:21:41;;;;;;;;;;;;;;;;;;351252;28;880;-62
2022/10/13 01:22:10;;;;;;;;;;;;;;;;;;351330;28;984;-63
2022/10/13 01:22:32;;;;;;;;;;;;;;;;;;351316;28;908;-63
2022/10/13 01:22:48;;;;;;;;;;;;;;;;;;351342;28;987;-62
2022/10/13 01:23:17;;;;;;;;;;;;;;;;;;351295;28;928;-62
2022/10/13 01:23:46;;;;;;;;;;;;;;;;;;349708;28;1964;-62
2022/10/13 01:24:13;;;;;;;;;;;;;;;;;;349491;28;2095;-62
2022/10/13 01:24:41;;;;;;;;;;;;;;;;;;351331;28;976;-62
2022/10/13 01:25:01;;;;;;;;;;;;;;;;;;350270;28;1789;-62
2022/10/13 01:25:21;;;;;;;;;;;;;;;;;;350332;28;2082;-62
2022/10/13 01:25:34;;;;;;;;;;;;;;;;;;351306;28;1743;-62
2022/10/13 01:26:10;;;;;;;;;;;;;;;;;;352482;28;1451;-62
2022/10/13 01:26:39;;;;;;;;;;;;;;;;;;348176;28;1005;-63
2022/10/13 01:26:49;;;;;;;;;;;;;;;;;;350316;28;2117;-62
2022/10/13 01:27:14;;;;;;;;;;;;;;;;;;352714;28;994;-62
2022/10/13 01:27:45;;;;;;;;;;;;;;;;;;352783;28;936;-62
2022/10/13 01:28:07;;;;;;;;;;;;;;;;;;352740;28;1023;-62
2022/10/13 01:28:39;;;;;;;;;;;;;;;;;;352771;28;793;-62